createdAt,value
2022-12-31T00:02:14.764Z,99122.03
2022-12-31T00:04:43.188Z,99131.66
2022-12-31T00:07:11.554Z,99126.41
2022-12-31T00:09:39.835Z,99124.63
2022-12-31T00:12:09.655Z,99119.41
2022-12-31T00:14:38.006Z,99129.91
2022-12-31T00:17:06.363Z,99120.28
2022-12-31T00:19:34.644Z,99120.28
2022-12-31T00:22:02.970Z,99116.78
2022-12-31T00:24:31.437Z,99123.75
2022-12-31T00:26:59.785Z,99109.75
2022-12-31T00:29:29.440Z,99107.13
2022-12-31T00:31:57.799Z,99103.63
2022-12-31T00:34:26.260Z,99116.72
2022-12-31T00:36:54.604Z,99107.09
2022-12-31T00:39:22.906Z,99099.22
2022-12-31T00:41:51.226Z,99094.00
2022-12-31T00:44:19.697Z,99098.34
2022-12-31T00:46:49.473Z,99093.97
2022-12-31T00:49:17.936Z,99096.59
2022-12-31T00:51:46.620Z,99093.06
2022-12-31T00:54:15.668Z,99088.69
2022-12-31T00:56:44.005Z,99086.06
2022-12-31T00:59:12.432Z,99080.81
2022-12-31T01:01:41.467Z,99070.31
2022-12-31T01:04:13.791Z,99072.94
2022-12-31T01:06:43.041Z,99059.81
2022-12-31T01:09:12.975Z,99072.94
2022-12-31T01:11:41.436Z,99065.94
2022-12-31T01:14:12.384Z,99058.94
2022-12-31T01:16:43.689Z,99065.06
2022-12-31T01:19:15.309Z,99063.31
2022-12-31T01:21:45.537Z,99069.47
2022-12-31T01:24:14.709Z,99053.72
2022-12-31T01:26:43.369Z,99058.06
2022-12-31T01:29:13.587Z,99054.56
2022-12-31T01:31:42.215Z,99055.47
2022-12-31T01:34:11.087Z,99056.34
2022-12-31T01:36:41.234Z,99054.59
2022-12-31T01:39:10.673Z,99058.97
2022-12-31T01:41:41.013Z,99054.59
2022-12-31T01:44:49.827Z,99049.31
2022-12-31T01:47:22.934Z,99045.84
2022-12-31T01:49:54.426Z,99055.47
2022-12-31T01:52:29.264Z,99060.72
2022-12-31T01:55:02.637Z,99058.97
2022-12-31T01:57:31.782Z,99058.09
2022-12-31T02:00:02.874Z,99048.47
2022-12-31T02:02:33.300Z,99068.59
2022-12-31T02:05:06.853Z,99077.38
2022-12-31T02:07:36.538Z,99084.38
2022-12-31T02:10:05.470Z,99085.25
2022-12-31T02:12:33.847Z,99081.75
2022-12-31T02:15:02.301Z,99080.88
2022-12-31T02:17:37.624Z,99076.50
2022-12-31T02:20:41.034Z,99069.47
2022-12-31T02:23:39.775Z,99069.47
2022-12-31T02:26:42.853Z,99062.47
2022-12-31T02:29:58.620Z,99056.34
2022-12-31T02:32:38.816Z,99060.69
2022-12-31T02:35:13.248Z,99069.50
2022-12-31T02:37:46.069Z,99068.63
2022-12-31T02:40:18.693Z,99066.00
2022-12-31T02:42:53.285Z,99072.97
2022-12-31T02:45:30.360Z,99076.50
2022-12-31T02:48:14.005Z,99072.94
2022-12-31T02:50:55.546Z,99077.31
2022-12-31T02:53:45.649Z,99070.25
2022-12-31T02:56:20.708Z,99065.84
2022-12-31T02:59:17.794Z,99071.09
2022-12-31T03:02:09.468Z,99093.88
2022-12-31T03:04:40.562Z,99062.28
2022-12-31T03:07:10.974Z,99060.50
2022-12-31T03:09:40.148Z,99081.53
2022-12-31T03:12:29.697Z,99074.50
2022-12-31T03:14:58.080Z,99091.13
2022-12-31T03:17:26.907Z,99096.34
2022-12-31T03:20:13.905Z,99091.06
2022-12-31T03:22:44.622Z,99079.63
2022-12-31T03:25:33.264Z,99072.59
2022-12-31T03:28:03.458Z,99101.59
2022-12-31T03:30:33.685Z,99077.84
2022-12-31T03:33:02.895Z,99095.41
2022-12-31T03:35:34.221Z,99077.78
2022-12-31T03:38:02.989Z,99083.06
2022-12-31T03:40:34.440Z,99090.06
2022-12-31T03:43:02.751Z,99103.22
2022-12-31T03:45:31.178Z,99099.69
2022-12-31T03:47:59.509Z,99117.25
2022-12-31T03:50:27.884Z,99107.56
2022-12-31T03:52:57.630Z,99092.63
2022-12-31T03:55:26.344Z,99108.44
2022-12-31T03:57:54.643Z,99108.41
2022-12-31T04:00:23.197Z,99111.91
2022-12-31T04:02:52.534Z,99107.53
2022-12-31T04:05:21.587Z,99111.03
2022-12-31T04:07:52.033Z,99099.63
2022-12-31T04:10:21.941Z,99095.22
2022-12-31T04:12:50.240Z,99118.94
2022-12-31T04:15:20.503Z,99097.84
2022-12-31T04:17:49.456Z,99111.03
2022-12-31T04:20:18.022Z,99116.28
2022-12-31T04:22:46.455Z,99086.41
2022-12-31T04:25:15.050Z,99096.09
2022-12-31T04:27:44.709Z,99089.94
2022-12-31T04:30:14.324Z,99086.41
2022-12-31T04:32:43.130Z,99089.03
2022-12-31T04:35:12.457Z,99100.47
2022-12-31T04:37:40.880Z,99096.09
2022-12-31T04:40:10.195Z,99116.28
2022-12-31T04:42:38.808Z,99124.16
2022-12-31T04:45:09.677Z,99114.50
2022-12-31T04:47:37.986Z,99121.50
2022-12-31T04:50:07.452Z,99119.75
2022-12-31T04:52:40.516Z,99132.91
2022-12-31T04:55:11.880Z,99139.06
2022-12-31T04:57:40.298Z,99123.22
2022-12-31T05:00:11.594Z,99142.56
2022-12-31T05:02:40.156Z,99142.53
2022-12-31T05:05:09.497Z,99124.97
2022-12-31T05:07:37.808Z,99126.66
2022-12-31T05:10:07.425Z,99143.34
2022-12-31T05:12:35.823Z,99136.31
2022-12-31T05:15:04.376Z,99126.63
2022-12-31T05:17:34.073Z,99129.25
2022-12-31T05:20:02.390Z,99142.38
2022-12-31T05:22:30.748Z,99137.09
2022-12-31T05:24:59.907Z,99127.41
2022-12-31T05:27:31.052Z,99129.19
2022-12-31T05:29:59.995Z,99137.06
2022-12-31T05:32:28.579Z,99144.94
2022-12-31T05:34:59.772Z,99152.84
2022-12-31T05:37:30.192Z,99151.97
2022-12-31T05:39:58.585Z,99126.44
2022-12-31T05:42:27.524Z,99159.00
2022-12-31T05:44:55.944Z,99153.72
2022-12-31T05:47:24.402Z,99152.81
2022-12-31T05:49:52.786Z,99161.56
2022-12-31T05:52:22.569Z,99161.56
2022-12-31T05:54:50.917Z,99163.31
2022-12-31T05:57:19.298Z,99159.78
2022-12-31T05:59:47.606Z,99158.88
2022-12-31T06:02:16.126Z,99171.19
2022-12-31T06:04:44.516Z,99173.81
2022-12-31T06:07:12.886Z,99181.72
2022-12-31T06:09:42.579Z,99185.19
2022-12-31T08:09:15.026Z,99297.59
2022-12-31T08:11:54.583Z,99297.59
2022-12-31T08:14:45.047Z,99306.38
2022-12-31T08:17:15.410Z,99308.13
2022-12-31T08:19:45.720Z,99316.03
2022-12-31T08:22:38.129Z,99308.09
2022-12-31T08:25:17.603Z,99310.72
2022-12-31T08:27:58.336Z,99319.53
2022-12-31T08:30:37.531Z,99299.28
2022-12-31T08:33:14.966Z,99315.09
2022-12-31T08:36:03.331Z,99315.09
2022-12-31T08:38:38.823Z,99322.97
2022-12-31T08:41:15.626Z,99333.53
2022-12-31T08:43:53.983Z,99347.56
2022-12-31T08:46:30.273Z,99335.22
2022-12-31T08:48:59.503Z,99337.00
2022-12-31T08:51:28.579Z,99348.41
2022-12-31T08:53:57.535Z,99358.09
2022-12-31T08:56:33.754Z,99344.91
2022-12-31T08:59:15.285Z,99335.19
2022-12-31T09:02:04.887Z,99340.47
2022-12-31T09:04:47.351Z,99349.28
2022-12-31T09:07:22.127Z,99350.13
2022-12-31T09:10:01.622Z,99350.13
2022-12-31T09:12:35.946Z,99358.91
2022-12-31T09:15:12.607Z,99357.13
2022-12-31T09:17:46.665Z,99352.75
2022-12-31T09:20:23.406Z,99377.34
2022-12-31T09:22:53.101Z,99387.06
2022-12-31T09:25:23.436Z,99387.91
2022-12-31T09:31:59.620Z,99442.47
2022-12-31T09:34:37.185Z,99416.03
2022-12-31T09:37:13.966Z,99430.13
2022-12-31T09:39:44.486Z,99444.19
2022-12-31T09:42:58.834Z,99437.13
2022-12-31T09:45:56.315Z,99421.25
2022-12-31T09:49:08.930Z,99431.81
2022-12-31T09:51:45.950Z,99432.69
2022-12-31T09:54:37.623Z,99459.97
2022-12-31T09:57:30.060Z,99444.13
2022-12-31T10:00:04.372Z,99453.81
2022-12-31T10:02:56.630Z,99452.03
2022-12-31T10:05:40.184Z,99454.66
2022-12-31T10:08:19.582Z,99456.41
2022-12-31T10:10:53.461Z,99447.63
2022-12-31T10:13:36.015Z,99473.13
2022-12-31T10:16:25.623Z,99469.59
2022-12-31T10:19:28.098Z,99456.38
2022-12-31T10:22:11.996Z,99465.16
2022-12-31T10:24:54.767Z,99468.66
2022-12-31T10:27:39.459Z,99472.16
2022-12-31T10:30:17.084Z,99473.94
2022-12-31T10:32:55.189Z,99477.44
2022-12-31T10:35:32.120Z,99472.13
2022-12-31T10:38:12.297Z,99479.16
2022-12-31T10:41:12.110Z,99479.16
2022-12-31T10:44:12.892Z,99482.72
2022-12-31T10:47:21.071Z,99475.63
2022-12-31T10:50:17.645Z,99487.94
2022-12-31T10:53:09.916Z,99474.72
2022-12-31T10:56:16.923Z,99470.31
2022-12-31T10:59:24.960Z,99471.19
2022-12-31T11:02:11.815Z,99470.31
2022-12-31T11:05:25.964Z,99456.19
2022-12-31T11:08:09.778Z,99446.50
2022-12-31T11:11:01.939Z,99462.38
2022-12-31T11:14:25.811Z,99461.47
2022-12-31T11:17:23.393Z,99477.31
2022-12-31T11:20:04.464Z,99455.28
2022-12-31T11:22:47.779Z,99463.22
2022-12-31T11:25:29.416Z,99473.78
2022-12-31T11:28:18.501Z,99479.09
2022-12-31T11:31:03.829Z,99477.28
2022-12-31T11:33:50.250Z,99480.84
2022-12-31T11:36:29.562Z,99455.28
2022-12-31T11:39:15.832Z,99465.84
2022-12-31T11:41:50.987Z,99458.78
2022-12-31T11:44:32.836Z,99463.22
2022-12-31T11:47:15.478Z,99458.78
2022-12-31T11:49:56.413Z,99469.38
2022-12-31T11:52:42.741Z,99465.84
2022-12-31T11:55:27.273Z,99473.78
2022-12-31T11:58:00.135Z,99483.47
2022-12-31T12:00:29.912Z,99479.97
2022-12-31T12:03:04.415Z,99477.31
2022-12-31T12:05:32.968Z,99484.38
2022-12-31T12:08:02.350Z,99473.81
2022-12-31T12:10:36.561Z,99488.81
2022-12-31T12:13:13.869Z,99482.66
2022-12-31T12:15:46.449Z,99476.47
2022-12-31T12:18:27.411Z,99478.22
2022-12-31T12:21:03.563Z,99465.88
2022-12-31T12:23:32.868Z,99470.31
2022-12-31T12:26:01.278Z,99465.00
2022-12-31T12:28:31.747Z,99468.53
2022-12-31T12:31:02.271Z,99458.81
2022-12-31T12:33:43.019Z,99488.81
2022-12-31T12:36:15.313Z,99465.88
2022-12-31T12:38:44.426Z,99468.53
2022-12-31T12:41:19.847Z,99464.09
2022-12-31T12:43:48.469Z,99465.88
2022-12-31T12:46:22.178Z,99464.97
2022-12-31T12:48:57.268Z,99468.53
2022-12-31T12:51:53.373Z,99467.66
2022-12-31T12:54:39.603Z,99476.50
2022-12-31T12:57:18.297Z,99473.84
2022-12-31T13:00:02.338Z,99479.97
2022-12-31T13:03:03.532Z,99480.88
2022-12-31T13:05:47.799Z,99491.44
2022-12-31T13:08:27.798Z,99493.19
2022-12-31T13:11:15.678Z,99500.28
2022-12-31T13:13:52.036Z,99494.09
2022-12-31T13:16:27.305Z,99512.59
2022-12-31T13:19:03.215Z,99505.56
2022-12-31T13:21:41.644Z,99505.56
2022-12-31T13:24:23.248Z,99493.19
2022-12-31T13:26:57.804Z,99482.66
2022-12-31T13:29:31.639Z,99486.19
2022-12-31T13:32:03.164Z,99512.63
2022-12-31T13:34:34.892Z,99511.78
2022-12-31T13:37:12.524Z,99506.50
2022-12-31T13:39:44.454Z,99508.28
2022-12-31T13:42:20.614Z,99505.63
2022-12-31T13:44:55.020Z,99492.41
2022-12-31T13:47:33.513Z,99501.22
2022-12-31T13:50:14.425Z,99516.19
2022-12-31T13:52:49.725Z,99513.53
2022-12-31T13:55:23.933Z,99490.63
2022-12-31T13:57:55.113Z,99488.88
2022-12-31T14:00:25.765Z,99492.41
2022-12-31T14:03:03.231Z,99505.63
2022-12-31T14:05:36.196Z,99495.97
2022-12-31T14:08:07.387Z,99506.53
2022-12-31T14:10:46.175Z,99498.59
2022-12-31T14:13:34.642Z,99502.13
2022-12-31T14:16:15.249Z,99508.28
2022-12-31T14:18:51.697Z,99507.47
2022-12-31T14:21:28.521Z,99491.59
2022-12-31T14:24:07.846Z,99491.63
2022-12-31T14:26:41.808Z,99481.09
2022-12-31T14:29:32.861Z,99495.19
2022-12-31T14:32:37.208Z,99503.19
2022-12-31T14:35:24.129Z,99512.00
2022-12-31T14:38:04.636Z,99518.19
2022-12-31T14:40:44.771Z,99511.16
2022-12-31T14:43:35.926Z,99507.66
2022-12-31T14:46:22.339Z,99515.59
2022-12-31T14:49:11.051Z,99523.53
2022-12-31T14:51:44.492Z,99525.34
2022-12-31T14:54:36.577Z,99516.53
2022-12-31T14:57:25.105Z,99524.47
2022-12-31T15:00:13.068Z,99532.41
2022-12-31T15:02:55.726Z,99516.59
2022-12-31T15:05:30.283Z,99516.63
2022-12-31T15:08:26.437Z,99513.09
2022-12-31T15:11:15.288Z,99517.47
2022-12-31T15:14:04.600Z,99521.03
2022-12-31T15:16:59.126Z,99526.31
2022-12-31T15:20:00.735Z,99498.16
2022-12-31T15:22:38.767Z,99530.72
2022-12-31T15:25:23.622Z,99525.47
2022-12-31T15:27:55.065Z,99502.56
2022-12-31T15:30:43.012Z,99521.06
2022-12-31T15:33:24.147Z,99522.84
2022-12-31T15:35:55.410Z,99525.50
2022-12-31T15:38:36.892Z,99526.34
2022-12-31T15:41:30.609Z,99528.16
2022-12-31T15:44:12.546Z,99532.56
2022-12-31T15:46:46.879Z,99539.53
2022-12-31T15:49:26.863Z,99520.22
2022-12-31T15:52:02.621Z,99543.06
2022-12-31T15:54:44.928Z,99527.22
2022-12-31T15:57:30.972Z,99532.50
2022-12-31T16:00:06.339Z,99529.88
2022-12-31T16:02:45.987Z,99520.22
2022-12-31T16:05:21.255Z,99520.22
2022-12-31T16:07:50.029Z,99507.88
2022-12-31T16:10:43.261Z,99514.94
2022-12-31T16:13:27.215Z,99511.41
2022-12-31T16:16:05.956Z,99515.81
2022-12-31T16:18:49.268Z,99532.53
2022-12-31T16:21:46.900Z,99511.41
2022-12-31T16:25:02.631Z,99509.66
2022-12-31T16:27:36.747Z,99521.09
2022-12-31T16:30:13.743Z,99515.81
2022-12-31T16:32:49.972Z,99517.56
2022-12-31T16:35:25.532Z,99515.81
2022-12-31T16:38:11.487Z,99510.53
2022-12-31T16:40:40.777Z,99510.53
2022-12-31T16:43:27.182Z,99521.97
2022-12-31T16:46:01.279Z,99522.88
2022-12-31T16:48:39.646Z,99515.81
2022-12-31T16:51:18.025Z,99514.06
2022-12-31T16:53:59.096Z,99511.44
2022-12-31T16:56:36.066Z,99518.47
2022-12-31T16:59:33.495Z,99519.38
2022-12-31T17:02:18.077Z,99529.91
2022-12-31T17:04:58.676Z,99516.72
2022-12-31T17:07:40.749Z,99514.97
2022-12-31T17:10:36.122Z,99512.38
2022-12-31T17:13:38.684Z,99517.63
2022-12-31T17:16:29.068Z,99502.69
2022-12-31T17:19:09.768Z,99506.22
2022-12-31T17:25:22.868Z,99504.47
2022-12-31T17:28:57.142Z,99500.06
2022-12-31T17:31:34.879Z,99501.84
2022-12-31T17:34:24.415Z,99493.94
2022-12-31T17:36:59.138Z,99500.06
2022-12-31T17:46:17.233Z,99497.47
2022-12-31T17:48:50.573Z,99493.94
2022-12-31T17:51:18.967Z,99492.19
2022-12-31T17:53:53.028Z,99497.44
2022-12-31T17:57:11.091Z,99488.69
2022-12-31T18:04:12.847Z,99505.38
2022-12-31T18:11:38.428Z,99493.09
2022-12-31T18:14:14.777Z,99498.34
2022-12-31T18:16:43.320Z,99492.19
2022-12-31T18:19:37.893Z,99484.28
2022-12-31T18:22:33.231Z,99479.91
2022-12-31T18:28:39.242Z,99475.50
2022-12-31T18:31:07.708Z,99475.50
2022-12-31T18:33:36.145Z,99476.38
2022-12-31T18:36:10.958Z,99475.50
2022-12-31T18:38:40.187Z,99469.38
2022-12-31T18:41:16.253Z,99476.41
2022-12-31T18:43:44.593Z,99471.13
2022-12-31T18:51:17.023Z,99468.50
2022-12-31T18:55:06.376Z,99462.34
2022-12-31T18:57:55.315Z,99463.25
2022-12-31T19:00:49.697Z,99467.63
2022-12-31T19:04:11.046Z,99485.19
2022-12-31T19:06:48.900Z,99481.66
2022-12-31T19:09:58.509Z,99479.94
2022-12-31T19:20:15.834Z,99486.06
2022-12-31T19:26:50.779Z,99499.25
2022-12-31T19:29:29.067Z,99497.50
2022-12-31T19:32:50.027Z,99500.13
2022-12-31T19:35:19.008Z,99502.78
2022-12-31T19:37:49.763Z,99509.78
2022-12-31T19:40:22.082Z,99509.78
2022-12-31T19:42:51.653Z,99516.81
2022-12-31T19:45:21.793Z,99513.31
2022-12-31T19:47:52.361Z,99518.56
2022-12-31T19:50:22.665Z,99517.69
2022-12-31T19:52:54.136Z,99520.34
2022-12-31T19:55:25.057Z,99540.53
2022-12-31T19:58:38.773Z,99538.78
2022-12-31T20:02:05.364Z,99537.03
2022-12-31T20:05:11.199Z,99551.94
2022-12-31T20:07:41.519Z,99571.28
2022-12-31T20:10:10.901Z,99559.84
2022-12-31T20:12:44.311Z,99558.09
2022-12-31T20:15:13.122Z,99566.88
2022-12-31T20:17:41.600Z,99566.03
2022-12-31T20:20:10.526Z,99567.78
2022-12-31T20:22:40.213Z,99598.53
2022-12-31T20:25:09.072Z,99573.03
2022-12-31T20:27:37.420Z,99583.59
2022-12-31T20:30:06.887Z,99582.69
2022-12-31T20:32:35.212Z,99582.69
2022-12-31T20:35:04.042Z,99595.00
2022-12-31T20:37:32.374Z,99588.84
2022-12-31T20:40:02.061Z,99597.63
2022-12-31T20:42:30.372Z,99601.16
2022-12-31T20:44:58.716Z,99597.63
2022-12-31T20:47:27.043Z,99607.31
2022-12-31T20:50:12.213Z,99603.78
2022-12-31T20:52:41.136Z,99606.44
2022-12-31T20:55:13.659Z,99606.44
2022-12-31T20:57:42.132Z,99610.84
2022-12-31T21:00:12.399Z,99611.72
2022-12-31T21:02:42.625Z,99618.75
2022-12-31T21:05:12.097Z,99611.72
2022-12-31T21:07:40.607Z,99613.47
2022-12-31T21:10:10.679Z,99628.41
2022-12-31T21:12:45.255Z,99617.84
2022-12-31T21:15:13.795Z,99626.66
2022-12-31T21:17:42.053Z,99625.78
2022-12-31T21:20:11.155Z,99640.69
2022-12-31T21:22:39.798Z,99643.38
2022-12-31T21:25:10.454Z,99640.72
2022-12-31T21:27:38.781Z,99647.75
2022-12-31T21:30:23.385Z,99641.63
2022-12-31T21:32:52.366Z,99645.09
2022-12-31T21:38:09.516Z,99640.72
2022-12-31T21:40:39.163Z,99639.84
2022-12-31T21:43:07.738Z,99633.69
2022-12-31T21:45:36.064Z,99628.41
2022-12-31T21:48:24.780Z,99638.97
2022-12-31T21:50:55.274Z,99648.63
2022-12-31T21:53:32.091Z,99629.31
2022-12-31T21:56:08.835Z,99636.34
2022-12-31T21:58:37.896Z,99646.88
2022-12-31T22:01:24.824Z,99660.94
2022-12-31T22:03:53.331Z,99638.97
2022-12-31T22:06:23.998Z,99651.28
2022-12-31T22:08:54.819Z,99634.56
2022-12-31T22:11:26.421Z,99652.16
2022-12-31T22:13:55.857Z,99653.03
2022-12-31T22:16:24.342Z,99654.78
2022-12-31T22:18:55.974Z,99652.16
2022-12-31T22:21:26.474Z,99660.94
2022-12-31T22:23:56.339Z,99664.47
2022-12-31T22:26:28.326Z,99671.47
2022-12-31T22:28:59.424Z,99669.72
2022-12-31T22:31:30.968Z,99676.75
2022-12-31T22:33:59.852Z,99667.97
2022-12-31T22:36:28.243Z,99676.78
2022-12-31T22:38:58.640Z,99677.66
2022-12-31T22:41:29.198Z,99676.78
2022-12-31T22:44:03.944Z,99677.63
2022-12-31T22:46:33.554Z,99669.72
2022-12-31T22:49:03.061Z,99687.31
2022-12-31T22:51:54.856Z,99685.53
2022-12-31T22:54:20.511Z,99682.03
2022-12-31T22:56:50.198Z,99682.03
2022-12-31T22:59:18.555Z,99691.72
2022-12-31T23:01:46.971Z,99684.66
2022-12-31T23:04:15.480Z,99689.94
2022-12-31T23:06:46.870Z,99676.75
2022-12-31T23:09:34.425Z,99683.78
2022-12-31T23:12:06.879Z,99679.41
2022-12-31T23:14:53.545Z,99683.78
2022-12-31T23:17:41.845Z,99675.00
2022-12-31T23:20:32.647Z,99680.25
2022-12-31T23:23:10.795Z,99671.50
2022-12-31T23:25:42.086Z,99686.41
2022-12-31T23:28:14.023Z,99695.22
2022-12-31T23:30:43.347Z,99675.88
2022-12-31T23:33:15.855Z,99681.16
2022-12-31T23:35:44.389Z,99676.78
2022-12-31T23:38:13.826Z,99678.50
2022-12-31T23:40:42.187Z,99679.41
2022-12-31T23:43:20.887Z,99689.94
2022-12-31T23:45:49.585Z,99690.81
2022-12-31T23:48:17.908Z,99693.47
2022-12-31T23:50:52.458Z,99695.22
2022-12-31T23:53:21.864Z,99686.44
2022-12-31T23:55:50.229Z,99698.75
2022-12-31T23:58:21.081Z,99701.38
